sensor_id;sensor_type;location;lat;lon;timestamp;pressure;altitude;pressure_sealevel;temperature;humidity
21011;BME280;10663;42.714;23.274;2023-06-22T00:00:23;95192.97;;;21.90;65.19
21011;BME280;10663;42.714;23.274;2023-06-22T00:01:54;95190.44;;;21.94;64.74
21011;BME280;10663;42.714;23.274;2023-06-22T00:03:25;95196.59;;;21.94;65.51
21011;BME280;10663;42.714;23.274;2023-06-22T00:04:56;95195.84;;;21.85;64.38
21011;BME280;10663;42.714;23.274;2023-06-22T00:06:27;95190.00;;;21.83;64.78
21011;BME280;10663;42.714;23.274;2023-06-22T00:08:01;95190.94;;;21.79;65.21
21011;BME280;10663;42.714;23.274;2023-06-22T00:09:32;95189.38;;;21.78;65.00
21011;BME280;10663;42.714;23.274;2023-06-22T00:11:03;95190.06;;;21.66;65.04
21011;BME280;10663;42.714;23.274;2023-06-22T00:12:34;95189.88;;;21.71;64.51
21011;BME280;10663;42.714;23.274;2023-06-22T00:14:05;95189.72;;;21.67;64.68
21011;BME280;10663;42.714;23.274;2023-06-22T00:15:37;95192.25;;;21.73;65.34
21011;BME280;10663;42.714;23.274;2023-06-22T00:17:08;95188.25;;;21.79;65.21
21011;BME280;10663;42.714;23.274;2023-06-22T00:18:39;95185.03;;;21.85;64.75
21011;BME280;10663;42.714;23.274;2023-06-22T00:20:17;95183.09;;;21.94;65.64
21011;BME280;10663;42.714;23.274;2023-06-22T00:21:49;95178.84;;;22.02;65.68
21011;BME280;10663;42.714;23.274;2023-06-22T00:23:24;95180.22;;;22.08;65.35
21011;BME280;10663;42.714;23.274;2023-06-22T00:24:55;95171.28;;;22.16;65.27
21011;BME280;10663;42.714;23.274;2023-06-22T00:26:26;95165.91;;;22.16;65.33
21011;BME280;10663;42.714;23.274;2023-06-22T00:27:57;95165.25;;;22.19;65.78
21011;BME280;10663;42.714;23.274;2023-06-22T00:29:28;95160.97;;;22.18;64.96
21011;BME280;10663;42.714;23.274;2023-06-22T00:31:00;95163.06;;;22.13;64.93
21011;BME280;10663;42.714;23.274;2023-06-22T00:32:31;95163.72;;;22.10;64.84
21011;BME280;10663;42.714;23.274;2023-06-22T00:34:02;95168.00;;;22.11;64.73
21011;BME280;10663;42.714;23.274;2023-06-22T00:35:33;95168.31;;;22.09;65.26
21011;BME280;10663;42.714;23.274;2023-06-22T00:37:05;95161.97;;;22.05;65.45
21011;BME280;10663;42.714;23.274;2023-06-22T00:38:38;95168.22;;;21.88;66.09
21011;BME280;10663;42.714;23.274;2023-06-22T00:40:13;95171.53;;;22.02;66.06
21011;BME280;10663;42.714;23.274;2023-06-22T00:41:45;95164.09;;;21.99;65.98
21011;BME280;10663;42.714;23.274;2023-06-22T00:43:15;95164.03;;;22.08;66.09
21011;BME280;10663;42.714;23.274;2023-06-22T00:44:46;95169.31;;;21.96;65.73
21011;BME280;10663;42.714;23.274;2023-06-22T00:46:17;95169.81;;;21.98;66.58
21011;BME280;10663;42.714;23.274;2023-06-22T00:47:52;95168.69;;;21.99;65.91
21011;BME280;10663;42.714;23.274;2023-06-22T00:49:24;95166.66;;;21.87;65.88
21011;BME280;10663;42.714;23.274;2023-06-22T00:50:54;95162.25;;;21.83;66.38
21011;BME280;10663;42.714;23.274;2023-06-22T00:52:27;95169.69;;;21.77;66.54
21011;BME280;10663;42.714;23.274;2023-06-22T00:54:00;95172.41;;;21.77;67.35
21011;BME280;10663;42.714;23.274;2023-06-22T00:55:31;95173.19;;;21.78;67.19
21011;BME280;10663;42.714;23.274;2023-06-22T00:57:02;95168.09;;;21.85;66.91
21011;BME280;10663;42.714;23.274;2023-06-22T00:58:33;95171.75;;;21.80;66.36
21011;BME280;10663;42.714;23.274;2023-06-22T01:00:05;95172.59;;;21.72;65.43
21011;BME280;10663;42.714;23.274;2023-06-22T01:01:40;95187.50;;;21.70;66.38
21011;BME280;10663;42.714;23.274;2023-06-22T01:03:11;95191.19;;;21.56;66.88
21011;BME280;10663;42.714;23.274;2023-06-22T01:04:42;95190.84;;;21.67;66.95
21011;BME280;10663;42.714;23.274;2023-06-22T01:06:20;95188.94;;;21.58;67.25
21011;BME280;10663;42.714;23.274;2023-06-22T01:12:02;95179.84;;;21.80;67.93
21011;BME280;10663;42.714;23.274;2023-06-22T01:13:57;95179.84;;;21.80;67.56
21011;BME280;10663;42.714;23.274;2023-06-22T01:15:35;95183.53;;;21.76;66.33
21011;BME280;10663;42.714;23.274;2023-06-22T01:17:08;95178.63;;;21.69;67.49
21011;BME280;10663;42.714;23.274;2023-06-22T01:18:42;95178.31;;;21.62;67.22
21011;BME280;10663;42.714;23.274;2023-06-22T01:20:14;95177.53;;;21.61;67.15
21011;BME280;10663;42.714;23.274;2023-06-22T01:21:46;95176.59;;;21.66;66.16
21011;BME280;10663;42.714;23.274;2023-06-22T01:23:42;95176.28;;;21.50;65.35
21011;BME280;10663;42.714;23.274;2023-06-22T01:25:31;95177.38;;;21.58;67.24
21011;BME280;10663;42.714;23.274;2023-06-22T01:29:08;95189.63;;;21.55;66.30
21011;BME280;10663;42.714;23.274;2023-06-22T01:30:43;95191.50;;;21.55;66.80
21011;BME280;10663;42.714;23.274;2023-06-22T01:32:16;95195.31;;;21.54;67.25
21011;BME280;10663;42.714;23.274;2023-06-22T01:33:53;95200.28;;;21.09;66.72
21011;BME280;10663;42.714;23.274;2023-06-22T01:35:25;95199.34;;;20.96;67.70
21011;BME280;10663;42.714;23.274;2023-06-22T01:36:57;95191.75;;;20.89;68.64
21011;BME280;10663;42.714;23.274;2023-06-22T01:38:29;95194.28;;;21.12;68.77
21011;BME280;10663;42.714;23.274;2023-06-22T01:40:02;95200.00;;;20.93;68.16
21011;BME280;10663;42.714;23.274;2023-06-22T01:41:37;95198.84;;;20.94;69.40
21011;BME280;10663;42.714;23.274;2023-06-22T01:43:08;95203.94;;;20.96;67.99
21011;BME280;10663;42.714;23.274;2023-06-22T01:44:40;95190.94;;;20.80;68.55
21011;BME280;10663;42.714;23.274;2023-06-22T01:46:14;95192.06;;;20.97;69.87
21011;BME280;10663;42.714;23.274;2023-06-22T01:47:45;95192.03;;;21.05;69.65
21011;BME280;10663;42.714;23.274;2023-06-22T01:49:16;95183.31;;;21.17;69.21
21011;BME280;10663;42.714;23.274;2023-06-22T01:50:47;95194.28;;;21.12;68.60
21011;BME280;10663;42.714;23.274;2023-06-22T01:52:19;95188.88;;;21.12;69.16
21011;BME280;10663;42.714;23.274;2023-06-22T01:53:51;95194.59;;;21.19;68.92
21011;BME280;10663;42.714;23.274;2023-06-22T01:55:24;95209.66;;;21.20;68.71
21011;BME280;10663;42.714;23.274;2023-06-22T01:56:54;95205.88;;;21.21;68.57
21011;BME280;10663;42.714;23.274;2023-06-22T01:58:27;95205.38;;;21.19;68.04
21011;BME280;10663;42.714;23.274;2023-06-22T02:00:14;95212.38;;;20.20;69.27
21011;BME280;10663;42.714;23.274;2023-06-22T02:01:58;95217.03;;;20.37;69.23
21011;BME280;10663;42.714;23.274;2023-06-22T02:03:34;95213.50;;;20.28;70.10
21011;BME280;10663;42.714;23.274;2023-06-22T02:05:08;95220.38;;;20.03;70.95
21011;BME280;10663;42.714;23.274;2023-06-22T02:06:44;95221.94;;;20.04;70.20
21011;BME280;10663;42.714;23.274;2023-06-22T02:08:24;95219.88;;;19.92;70.68
21011;BME280;10663;42.714;23.274;2023-06-22T02:09:57;95221.31;;;19.98;70.78
21011;BME280;10663;42.714;23.274;2023-06-22T02:11:30;95223.66;;;19.91;70.73
21011;BME280;10663;42.714;23.274;2023-06-22T02:13:04;95220.19;;;19.91;70.85
21011;BME280;10663;42.714;23.274;2023-06-22T02:14:37;95215.13;;;19.98;71.38
21011;BME280;10663;42.714;23.274;2023-06-22T02:16:11;95215.63;;;20.00;70.40
21011;BME280;10663;42.714;23.274;2023-06-22T02:17:44;95202.66;;;20.02;70.04
21011;BME280;10663;42.714;23.274;2023-06-22T02:19:15;95204.06;;;19.99;69.63
21011;BME280;10663;42.714;23.274;2023-06-22T02:20:46;95218.44;;;19.95;70.10
21011;BME280;10663;42.714;23.274;2023-06-22T02:22:18;95209.44;;;19.91;70.17
21011;BME280;10663;42.714;23.274;2023-06-22T02:23:48;95205.47;;;19.97;70.26
21011;BME280;10663;42.714;23.274;2023-06-22T02:25:19;95206.75;;;19.99;69.33
21011;BME280;10663;42.714;23.274;2023-06-22T02:26:51;95203.19;;;19.73;70.13
21011;BME280;10663;42.714;23.274;2023-06-22T02:28:22;95206.84;;;19.86;69.92
21011;BME280;10663;42.714;23.274;2023-06-22T02:29:53;95196.09;;;19.86;70.23
21011;BME280;10663;42.714;23.274;2023-06-22T02:31:24;95199.63;;;19.95;70.03
21011;BME280;10663;42.714;23.274;2023-06-22T02:33:00;95195.81;;;19.87;69.94
21011;BME280;10663;42.714;23.274;2023-06-22T02:34:31;95202.69;;;19.71;70.45
21011;BME280;10663;42.714;23.274;2023-06-22T02:36:04;95203.50;;;19.71;70.76
21011;BME280;10663;42.714;23.274;2023-06-22T02:37:36;95206.84;;;19.86;71.14
21011;BME280;10663;42.714;23.274;2023-06-22T02:39:11;95195.53;;;19.97;70.33
21011;BME280;10663;42.714;23.274;2023-06-22T02:40:42;95200.06;;;19.88;70.68
21011;BME280;10663;42.714;23.274;2023-06-22T02:42:13;95195.22;;;19.99;70.45
21011;BME280;10663;42.714;23.274;2023-06-22T02:43:47;95202.69;;;20.10;70.51
21011;BME280;10663;42.714;23.274;2023-06-22T02:45:18;95199.81;;;20.07;70.20
21011;BME280;10663;42.714;23.274;2023-06-22T02:46:50;95197.91;;;19.99;70.71
21011;BME280;10663;42.714;23.274;2023-06-22T02:48:21;95197.59;;;20.00;70.30
21011;BME280;10663;42.714;23.274;2023-06-22T02:49:52;95202.03;;;20.05;70.60
21011;BME280;10663;42.714;23.274;2023-06-22T02:51:23;95205.94;;;19.90;71.38
21011;BME280;10663;42.714;23.274;2023-06-22T02:52:54;95206.00;;;19.68;71.42
21011;BME280;10663;42.714;23.274;2023-06-22T02:54:26;95201.06;;;19.61;72.09
21011;BME280;10663;42.714;23.274;2023-06-22T02:55:58;95203.44;;;19.40;72.78
21011;BME280;10663;42.714;23.274;2023-06-22T02:57:29;95206.78;;;19.37;73.02
21011;BME280;10663;42.714;23.274;2023-06-22T02:59:01;95214.81;;;19.37;73.22
21011;BME280;10663;42.714;23.274;2023-06-22T03:00:34;95219.47;;;19.46;72.72
21011;BME280;10663;42.714;23.274;2023-06-22T03:02:05;95217.44;;;19.51;72.32
21011;BME280;10663;42.714;23.274;2023-06-22T03:03:37;95207.19;;;19.53;72.28
21011;BME280;10663;42.714;23.274;2023-06-22T03:05:08;95205.34;;;19.62;72.73
21011;BME280;10663;42.714;23.274;2023-06-22T03:06:44;95209.88;;;19.53;72.42
21011;BME280;10663;42.714;23.274;2023-06-22T03:08:14;95217.06;;;19.44;72.54
21011;BME280;10663;42.714;23.274;2023-06-22T03:09:45;95215.91;;;19.59;71.91
21011;BME280;10663;42.714;23.274;2023-06-22T03:11:17;95217.97;;;19.62;71.41
21011;BME280;10663;42.714;23.274;2023-06-22T03:12:48;95218.66;;;19.23;73.49
21011;BME280;10663;42.714;23.274;2023-06-22T03:14:19;95225.03;;;19.27;73.30
21011;BME280;10663;42.714;23.274;2023-06-22T03:15:50;95218.84;;;19.49;73.34
21011;BME280;10663;42.714;23.274;2023-06-22T03:17:21;95233.56;;;19.29;73.21
21011;BME280;10663;42.714;23.274;2023-06-22T03:18:52;95228.22;;;19.29;73.04
21011;BME280;10663;42.714;23.274;2023-06-22T03:20:24;95231.53;;;19.12;73.45
21011;BME280;10663;42.714;23.274;2023-06-22T03:21:59;95235.44;;;19.06;73.50
21011;BME280;10663;42.714;23.274;2023-06-22T03:23:30;95230.16;;;19.15;72.70
21011;BME280;10663;42.714;23.274;2023-06-22T03:25:02;95239.50;;;19.17;72.79
21011;BME280;10663;42.714;23.274;2023-06-22T03:26:34;95241.69;;;19.37;72.01
21011;BME280;10663;42.714;23.274;2023-06-22T03:28:05;95239.94;;;19.55;71.70
21011;BME280;10663;42.714;23.274;2023-06-22T03:29:36;95241.13;;;19.71;71.39
21011;BME280;10663;42.714;23.274;2023-06-22T03:31:07;95238.19;;;19.59;71.44
21011;BME280;10663;42.714;23.274;2023-06-22T03:32:39;95238.63;;;19.75;70.69
21011;BME280;10663;42.714;23.274;2023-06-22T03:34:11;95238.25;;;19.68;70.91
21011;BME280;10663;42.714;23.274;2023-06-22T03:35:42;95241.88;;;19.63;71.02
21011;BME280;10663;42.714;23.274;2023-06-22T03:37:13;95243.94;;;19.66;70.61
21011;BME280;10663;42.714;23.274;2023-06-22T03:38:46;95245.69;;;19.71;70.32
21011;BME280;10663;42.714;23.274;2023-06-22T03:40:17;95245.13;;;19.83;69.99
21011;BME280;10663;42.714;23.274;2023-06-22T03:41:48;95241.13;;;20.11;69.45
21011;BME280;10663;42.714;23.274;2023-06-22T03:43:19;95249.53;;;20.18;69.86
21011;BME280;10663;42.714;23.274;2023-06-22T03:44:50;95248.59;;;20.23;69.46
21011;BME280;10663;42.714;23.274;2023-06-22T03:46:21;95254.41;;;20.47;69.12
21011;BME280;10663;42.714;23.274;2023-06-22T03:47:52;95258.38;;;20.58;68.34
21011;BME280;10663;42.714;23.274;2023-06-22T03:49:23;95267.22;;;20.59;67.19
21011;BME280;10663;42.714;23.274;2023-06-22T03:50:54;95263.41;;;20.51;67.12
21011;BME280;10663;42.714;23.274;2023-06-22T03:52:25;95268.50;;;20.52;67.35
21011;BME280;10663;42.714;23.274;2023-06-22T03:53:56;95265.16;;;20.47;67.56
21011;BME280;10663;42.714;23.274;2023-06-22T03:55:27;95268.81;;;20.51;66.53
21011;BME280;10663;42.714;23.274;2023-06-22T03:56:58;95260.59;;;20.56;67.80
21011;BME280;10663;42.714;23.274;2023-06-22T03:58:29;95259.34;;;20.62;67.19
21011;BME280;10663;42.714;23.274;2023-06-22T04:00:04;95257.13;;;20.73;67.42
21011;BME280;10663;42.714;23.274;2023-06-22T04:01:43;95254.59;;;20.85;67.50
21011;BME280;10663;42.714;23.274;2023-06-22T04:03:14;95258.44;;;21.01;67.31
21011;BME280;10663;42.714;23.274;2023-06-22T04:04:45;95256.06;;;21.17;66.79
21011;BME280;10663;42.714;23.274;2023-06-22T04:06:16;95253.69;;;21.33;66.24
21011;BME280;10663;42.714;23.274;2023-06-22T04:07:47;95249.59;;;21.26;66.39
21011;BME280;10663;42.714;23.274;2023-06-22T04:09:18;95251.97;;;21.19;65.56
21011;BME280;10663;42.714;23.274;2023-06-22T04:10:49;95235.31;;;21.26;66.16
21011;BME280;10663;42.714;23.274;2023-06-22T04:12:20;95242.44;;;21.39;66.17
21011;BME280;10663;42.714;23.274;2023-06-22T04:13:50;95234.03;;;21.32;66.30
21011;BME280;10663;42.714;23.274;2023-06-22T04:15:22;95245.13;;;21.48;66.01
21011;BME280;10663;42.714;23.274;2023-06-22T04:16:53;95232.25;;;21.53;66.30
21011;BME280;10663;42.714;23.274;2023-06-22T04:18:23;95234.78;;;21.50;66.79
21011;BME280;10663;42.714;23.274;2023-06-22T04:19:54;95229.41;;;21.50;67.46
21011;BME280;10663;42.714;23.274;2023-06-22T04:21:25;95226.06;;;21.61;66.49
21011;BME280;10663;42.714;23.274;2023-06-22T04:22:56;95229.25;;;21.55;66.93
21011;BME280;10663;42.714;23.274;2023-06-22T04:24:27;95223.84;;;21.55;67.11
21011;BME280;10663;42.714;23.274;2023-06-22T04:25:58;95235.38;;;21.73;66.89
21011;BME280;10663;42.714;23.274;2023-06-22T04:27:29;95228.34;;;21.89;65.92
21011;BME280;10663;42.714;23.274;2023-06-22T04:29:00;95236.72;;;22.05;65.25
21011;BME280;10663;42.714;23.274;2023-06-22T04:30:35;95235.47;;;22.02;64.52
21011;BME280;10663;42.714;23.274;2023-06-22T04:32:06;95240.06;;;22.10;63.84
21011;BME280;10663;42.714;23.274;2023-06-22T04:33:37;95234.75;;;22.22;63.75
21011;BME280;10663;42.714;23.274;2023-06-22T04:35:11;95231.97;;;22.39;64.20
21011;BME280;10663;42.714;23.274;2023-06-22T04:36:42;95238.56;;;22.51;64.38
21011;BME280;10663;42.714;23.274;2023-06-22T04:38:13;95233.84;;;22.48;64.44
21011;BME280;10663;42.714;23.274;2023-06-22T04:39:44;95233.63;;;22.23;62.43
21011;BME280;10663;42.714;23.274;2023-06-22T04:41:15;95235.63;;;22.35;62.74
21011;BME280;10663;42.714;23.274;2023-06-22T04:42:54;95241.59;;;22.20;62.11
21011;BME280;10663;42.714;23.274;2023-06-22T04:44:25;95238.09;;;22.19;62.44
21011;BME280;10663;42.714;23.274;2023-06-22T04:45:57;95247.59;;;22.25;62.19
21011;BME280;10663;42.714;23.274;2023-06-22T04:47:34;95249.53;;;22.16;62.57
21011;BME280;10663;42.714;23.274;2023-06-22T04:49:09;95247.88;;;22.32;61.53
21011;BME280;10663;42.714;23.274;2023-06-22T04:50:40;95243.69;;;22.44;61.05
21011;BME280;10663;42.714;23.274;2023-06-22T04:52:12;95242.38;;;22.50;61.01
21011;BME280;10663;42.714;23.274;2023-06-22T04:53:43;95250.94;;;22.52;60.18
21011;BME280;10663;42.714;23.274;2023-06-22T04:55:14;95251.88;;;22.56;60.27
21011;BME280;10663;42.714;23.274;2023-06-22T04:56:50;95251.41;;;22.54;60.09
21011;BME280;10663;42.714;23.274;2023-06-22T04:58:27;95254.78;;;22.71;59.60
21011;BME280;10663;42.714;23.274;2023-06-22T04:59:59;95251.50;;;22.66;59.24
21011;BME280;10663;42.714;23.274;2023-06-22T05:01:43;95250.41;;;22.67;59.24
21011;BME280;10663;42.714;23.274;2023-06-22T05:03:14;95250.38;;;22.75;58.84
21011;BME280;10663;42.714;23.274;2023-06-22T05:04:49;95249.22;;;22.76;59.12
21011;BME280;10663;42.714;23.274;2023-06-22T05:06:22;95248.50;;;22.88;59.17
21011;BME280;10663;42.714;23.274;2023-06-22T05:07:56;95251.69;;;22.90;58.90
21011;BME280;10663;42.714;23.274;2023-06-22T05:09:30;95242.00;;;23.10;58.82
21011;BME280;10663;42.714;23.274;2023-06-22T05:11:01;95245.81;;;23.09;58.95
21011;BME280;10663;42.714;23.274;2023-06-22T05:12:32;95248.66;;;23.12;59.50
21011;BME280;10663;42.714;23.274;2023-06-22T05:14:03;95243.19;;;23.21;59.41
21011;BME280;10663;42.714;23.274;2023-06-22T05:15:34;95244.81;;;23.34;59.11
21011;BME280;10663;42.714;23.274;2023-06-22T05:17:10;95246.69;;;23.22;59.55
21011;BME280;10663;42.714;23.274;2023-06-22T05:18:43;95239.63;;;23.29;59.11
21011;BME280;10663;42.714;23.274;2023-06-22T05:20:14;95244.53;;;23.48;58.47
21011;BME280;10663;42.714;23.274;2023-06-22T05:21:48;95244.06;;;23.46;58.73
21011;BME280;10663;42.714;23.274;2023-06-22T05:23:19;95246.59;;;23.51;58.28
21011;BME280;10663;42.714;23.274;2023-06-22T05:24:50;95243.28;;;23.78;57.92
21011;BME280;10663;42.714;23.274;2023-06-22T05:26:21;95243.50;;;23.85;57.72
21011;BME280;10663;42.714;23.274;2023-06-22T05:27:52;95250.59;;;23.78;57.54
21011;BME280;10663;42.714;23.274;2023-06-22T05:29:23;95253.72;;;24.01;56.95
21011;BME280;10663;42.714;23.274;2023-06-22T05:30:54;95253.59;;;24.09;56.54
21011;BME280;10663;42.714;23.274;2023-06-22T05:32:25;95259.25;;;24.16;55.76
21011;BME280;10663;42.714;23.274;2023-06-22T05:33:56;95271.88;;;23.67;55.30
21011;BME280;10663;42.714;23.274;2023-06-22T05:35:27;95257.72;;;23.82;56.23
21011;BME280;10663;42.714;23.274;2023-06-22T05:36:58;95268.25;;;23.42;56.71
21011;BME280;10663;42.714;23.274;2023-06-22T05:38:32;95263.59;;;23.52;56.94
21011;BME280;10663;42.714;23.274;2023-06-22T05:40:03;95262.44;;;23.85;55.63
21011;BME280;10663;42.714;23.274;2023-06-22T05:41:34;95263.22;;;23.74;56.67
21011;BME280;10663;42.714;23.274;2023-06-22T05:43:05;95267.22;;;24.01;55.43
21011;BME280;10663;42.714;23.274;2023-06-22T05:44:36;95264.78;;;24.20;55.80
21011;BME280;10663;42.714;23.274;2023-06-22T05:46:08;95264.19;;;24.02;55.75
21011;BME280;10663;42.714;23.274;2023-06-22T05:47:38;95267.69;;;23.37;56.61
21011;BME280;10663;42.714;23.274;2023-06-22T05:49:11;95265.66;;;23.55;56.48
21011;BME280;10663;42.714;23.274;2023-06-22T05:50:42;95276.94;;;24.02;55.76
21011;BME280;10663;42.714;23.274;2023-06-22T05:52:13;95274.06;;;24.31;54.55
21011;BME280;10663;42.714;23.274;2023-06-22T05:53:43;95275.13;;;23.94;55.25
21011;BME280;10663;42.714;23.274;2023-06-22T05:55:15;95272.66;;;24.01;55.58
21011;BME280;10663;42.714;23.274;2023-06-22T05:56:46;95278.47;;;24.48;54.60
21011;BME280;10663;42.714;23.274;2023-06-22T05:58:17;95276.31;;;24.53;54.64
21011;BME280;10663;42.714;23.274;2023-06-22T05:59:48;95271.13;;;24.85;53.23
21011;BME280;10663;42.714;23.274;2023-06-22T06:01:18;95271.56;;;24.99;52.62
21011;BME280;10663;42.714;23.274;2023-06-22T06:02:50;95267.41;;;25.02;53.00
21011;BME280;10663;42.714;23.274;2023-06-22T06:04:20;95266.44;;;25.22;52.52
21011;BME280;10663;42.714;23.274;2023-06-22T06:05:51;95263.44;;;25.39;51.67
21011;BME280;10663;42.714;23.274;2023-06-22T06:07:22;95262.41;;;25.71;51.06
21011;BME280;10663;42.714;23.274;2023-06-22T06:08:53;95255.47;;;25.58;51.53
21011;BME280;10663;42.714;23.274;2023-06-22T06:10:24;95255.13;;;25.60;51.64
21011;BME280;10663;42.714;23.274;2023-06-22T06:11:56;95261.91;;;25.66;51.48
21011;BME280;10663;42.714;23.274;2023-06-22T06:13:26;95258.06;;;25.83;50.67
21011;BME280;10663;42.714;23.274;2023-06-22T06:14:57;95255.38;;;25.98;50.28
21011;BME280;10663;42.714;23.274;2023-06-22T06:16:28;95254.38;;;25.75;50.85
21011;BME280;10663;42.714;23.274;2023-06-22T06:17:59;95255.69;;;25.81;50.47
21011;BME280;10663;42.714;23.274;2023-06-22T06:19:30;95257.28;;;26.14;50.25
21011;BME280;10663;42.714;23.274;2023-06-22T06:21:01;95256.16;;;26.15;49.75
21011;BME280;10663;42.714;23.274;2023-06-22T06:22:32;95251.28;;;26.36;50.09
21011;BME280;10663;42.714;23.274;2023-06-22T06:24:03;95252.00;;;26.33;49.37
21011;BME280;10663;42.714;23.274;2023-06-22T06:25:34;95251.53;;;26.62;48.78
21011;BME280;10663;42.714;23.274;2023-06-22T06:27:05;95254.63;;;26.45;49.09
21011;BME280;10663;42.714;23.274;2023-06-22T06:28:36;95257.88;;;26.35;49.51
21011;BME280;10663;42.714;23.274;2023-06-22T06:30:07;95261.53;;;26.58;49.59
21011;BME280;10663;42.714;23.274;2023-06-22T06:31:41;95244.66;;;26.68;48.61
21011;BME280;10663;42.714;23.274;2023-06-22T06:33:12;95251.72;;;27.04;47.92
21011;BME280;10663;42.714;23.274;2023-06-22T06:34:43;95251.16;;;27.14;47.39
21011;BME280;10663;42.714;23.274;2023-06-22T06:36:14;95243.38;;;27.13;47.45
21011;BME280;10663;42.714;23.274;2023-06-22T06:37:48;95244.72;;;27.42;47.29
21011;BME280;10663;42.714;23.274;2023-06-22T06:39:19;95232.34;;;27.83;46.01
21011;BME280;10663;42.714;23.274;2023-06-22T06:40:51;95233.91;;;27.84;45.54
21011;BME280;10663;42.714;23.274;2023-06-22T06:42:22;95234.06;;;27.52;47.44
21011;BME280;10663;42.714;23.274;2023-06-22T06:43:54;95234.41;;;28.12;45.40
21011;BME280;10663;42.714;23.274;2023-06-22T06:45:25;95235.66;;;27.96;45.54
21011;BME280;10663;42.714;23.274;2023-06-22T06:46:58;95229.41;;;27.34;46.45
21011;BME280;10663;42.714;23.274;2023-06-22T06:48:30;95227.84;;;27.71;45.66
21011;BME280;10663;42.714;23.274;2023-06-22T06:50:02;95224.09;;;28.21;44.51
21011;BME280;10663;42.714;23.274;2023-06-22T06:51:33;95226.53;;;28.53;44.52
21011;BME280;10663;42.714;23.274;2023-06-22T06:53:03;95222.81;;;28.64;44.19
21011;BME280;10663;42.714;23.274;2023-06-22T06:54:36;95217.22;;;28.80;43.00
21011;BME280;10663;42.714;23.274;2023-06-22T06:56:06;95222.47;;;28.43;44.04
21011;BME280;10663;42.714;23.274;2023-06-22T06:57:38;95224.91;;;28.48;44.00
21011;BME280;10663;42.714;23.274;2023-06-22T06:59:09;95218.59;;;28.97;43.08
21011;BME280;10663;42.714;23.274;2023-06-22T07:00:40;95222.19;;;29.31;42.10
21011;BME280;10663;42.714;23.274;2023-06-22T07:02:11;95215.72;;;29.13;42.78
21011;BME280;10663;42.714;23.274;2023-06-22T07:03:42;95217.06;;;29.59;41.53
21011;BME280;10663;42.714;23.274;2023-06-22T07:05:13;95224.59;;;29.36;42.16
21011;BME280;10663;42.714;23.274;2023-06-22T07:06:44;95220.59;;;29.30;42.39
21011;BME280;10663;42.714;23.274;2023-06-22T07:08:15;95223.91;;;29.13;43.43
21011;BME280;10663;42.714;23.274;2023-06-22T07:09:46;95215.31;;;29.14;43.11
21011;BME280;10663;42.714;23.274;2023-06-22T07:11:17;95205.22;;;29.45;42.38
21011;BME280;10663;42.714;23.274;2023-06-22T07:12:48;95216.84;;;29.38;42.74
21011;BME280;10663;42.714;23.274;2023-06-22T07:14:19;95219.47;;;29.34;42.38
21011;BME280;10663;42.714;23.274;2023-06-22T07:15:50;95222.34;;;30.16;40.93
21011;BME280;10663;42.714;23.274;2023-06-22T07:17:21;95225.94;;;29.86;41.91
21011;BME280;10663;42.714;23.274;2023-06-22T07:18:51;95223.34;;;29.63;42.35
21011;BME280;10663;42.714;23.274;2023-06-22T07:20:22;95217.09;;;29.63;40.56
21011;BME280;10663;42.714;23.274;2023-06-22T07:21:54;95221.84;;;29.69;41.34
21011;BME280;10663;42.714;23.274;2023-06-22T07:23:25;95216.75;;;29.64;41.32
21011;BME280;10663;42.714;23.274;2023-06-22T07:24:56;95218.13;;;29.51;41.40
21011;BME280;10663;42.714;23.274;2023-06-22T07:26:26;95217.91;;;29.63;40.82
21011;BME280;10663;42.714;23.274;2023-06-22T07:28:02;95214.88;;;29.72;40.47
21011;BME280;10663;42.714;23.274;2023-06-22T07:29:33;95215.72;;;29.13;41.82
21011;BME280;10663;42.714;23.274;2023-06-22T07:31:06;95223.91;;;28.86;42.71
21011;BME280;10663;42.714;23.274;2023-06-22T07:32:37;95216.69;;;29.27;41.65
21011;BME280;10663;42.714;23.274;2023-06-22T07:34:08;95222.97;;;29.01;41.83
21011;BME280;10663;42.714;23.274;2023-06-22T07:35:39;95226.94;;;29.08;41.83
21011;BME280;10663;42.714;23.274;2023-06-22T07:37:10;95226.50;;;29.02;41.62
21011;BME280;10663;42.714;23.274;2023-06-22T07:38:41;95223.25;;;28.93;40.80
21011;BME280;10663;42.714;23.274;2023-06-22T07:40:12;95227.66;;;29.04;41.46
21011;BME280;10663;42.714;23.274;2023-06-22T07:41:43;95227.28;;;28.76;42.97
21011;BME280;10663;42.714;23.274;2023-06-22T07:43:14;95232.72;;;28.50;43.87
21011;BME280;10663;42.714;23.274;2023-06-22T07:44:45;95229.94;;;28.99;43.43
21011;BME280;10663;42.714;23.274;2023-06-22T07:46:16;95228.34;;;28.72;43.07
21011;BME280;10663;42.714;23.274;2023-06-22T07:47:47;95228.00;;;28.99;42.47
21011;BME280;10663;42.714;23.274;2023-06-22T07:49:18;95230.13;;;28.60;43.25
21011;BME280;10663;42.714;23.274;2023-06-22T07:50:49;95230.47;;;29.38;42.43
21011;BME280;10663;42.714;23.274;2023-06-22T07:52:20;95224.31;;;28.62;44.04
21011;BME280;10663;42.714;23.274;2023-06-22T07:53:51;95233.88;;;28.49;44.79
21011;BME280;10663;42.714;23.274;2023-06-22T07:55:22;95233.19;;;28.55;44.60
21011;BME280;10663;42.714;23.274;2023-06-22T07:56:53;95230.94;;;28.15;45.78
21011;BME280;10663;42.714;23.274;2023-06-22T07:58:24;95227.91;;;27.75;46.89
21011;BME280;10663;42.714;23.274;2023-06-22T07:59:55;95230.19;;;27.53;46.97
21011;BME280;10663;42.714;23.274;2023-06-22T08:01:25;95215.94;;;28.02;46.53
21011;BME280;10663;42.714;23.274;2023-06-22T08:02:56;95223.94;;;28.37;45.58
21011;BME280;10663;42.714;23.274;2023-06-22T08:04:27;95218.34;;;28.53;44.83
21011;BME280;10663;42.714;23.274;2023-06-22T08:05:59;95208.66;;;28.82;45.12
21011;BME280;10663;42.714;23.274;2023-06-22T08:07:30;95213.72;;;28.31;46.80